Time;durP1;ratioP1;P1;durP2;ratioP2;P2;SDS_P1;SDS_P2;PMS_P1;PMS_P2;Temp;Humidity;BMP_temperature;BMP_pressure;BME280_temperature;BME280_humidity;BME280_pressure;Samples;Min_cycle;Max_cycle;Signal;HPM_P1;HPM_P2
2022/07/17 00:02:25;;;;;;;3.70;3.08;;;;;15.60;97193.00;;;;8317355;28;20214;-69
2022/07/17 00:06:29;;;;;;;3.38;3.05;;;;;15.60;97193.00;;;;8302915;28;20264;-69
2022/07/17 00:10:32;;;;;;;2.70;2.50;;;;;15.60;97191.00;;;;8323844;28;20638;-68
2022/07/17 00:14:35;;;;;;;4.15;3.05;;;;;15.50;97191.00;;;;8332297;28;20236;-68
2022/07/17 00:18:40;;;;;;;3.22;2.90;;;;;15.60;97190.00;;;;8322308;28;20244;-69
2022/07/17 00:22:43;;;;;;;5.57;3.15;;;;;15.70;97198.00;;;;8326833;28;20239;-68
2022/07/17 00:26:46;;;;;;;4.47;2.70;;;;;15.80;97198.00;;;;8320622;28;20307;-68
2022/07/17 00:30:50;;;;;;;3.28;2.97;;;;;15.90;97196.00;;;;8315968;28;20333;-68
2022/07/17 00:34:55;;;;;;;3.75;3.45;;;;;15.90;97189.00;;;;8330194;28;20257;-68
2022/07/17 00:38:58;;;;;;;4.30;3.28;;;;;15.90;97183.00;;;;8306681;28;20242;-69
2022/07/17 00:43:01;;;;;;;5.07;2.70;;;;;15.90;97192.00;;;;8319062;28;20232;-69
2022/07/17 00:47:04;;;;;;;5.32;3.38;;;;;15.80;97192.00;;;;8319070;28;20700;-69
2022/07/17 00:51:10;;;;;;;2.88;2.67;;;;;15.80;97193.00;;;;8310666;28;20220;-68
2022/07/17 00:55:15;;;;;;;4.45;2.90;;;;;15.80;97193.00;;;;8326241;28;20231;-69
2022/07/17 00:59:39;;;;;;;3.25;2.65;;;;;15.80;97210.00;;;;8319792;28;21062;-69
2022/07/17 01:03:43;;;;;;;3.45;2.83;;;;;15.70;97199.00;;;;8331663;28;20586;-69
2022/07/17 01:07:49;;;;;;;6.43;3.00;;;;;15.70;97207.00;;;;8315177;28;20956;-68
2022/07/17 01:11:52;;;;;;;4.90;2.75;;;;;15.70;97200.00;;;;8310182;28;20232;-69
2022/07/17 01:15:56;;;;;;;3.33;2.47;;;;;15.70;97203.00;;;;8346284;28;20264;-69
2022/07/17 01:19:59;;;;;;;3.50;2.45;;;;;15.60;97204.00;;;;8315010;28;20248;-69
2022/07/17 01:24:04;;;;;;;4.53;2.60;;;;;15.60;97209.00;;;;8316432;28;20237;-68
2022/07/17 01:28:08;;;;;;;3.03;2.75;;;;;15.50;97218.00;;;;8324838;28;20236;-69
2022/07/17 01:32:12;;;;;;;2.90;2.35;;;;;15.40;97218.00;;;;8324772;28;20650;-69
2022/07/17 01:36:15;;;;;;;3.83;2.63;;;;;15.30;97218.00;;;;8320780;28;20257;-69
2022/07/17 01:40:20;;;;;;;4.22;2.40;;;;;15.30;97223.00;;;;8313650;28;20232;-69
2022/07/17 01:44:23;;;;;;;6.68;2.53;;;;;15.20;97217.00;;;;8334890;28;20226;-68
2022/07/17 01:48:27;;;;;;;3.50;2.47;;;;;15.10;97216.00;;;;8321707;28;20232;-69
2022/07/17 01:52:30;;;;;;;2.88;2.63;;;;;15.10;97212.00;;;;8308764;28;20227;-69
2022/07/17 01:56:35;;;;;;;3.58;2.50;;;;;15.10;97212.00;;;;8334854;28;20239;-68
2022/07/17 02:00:38;;;;;;;4.68;2.42;;;;;15.00;97208.00;;;;8309489;28;20887;-69
2022/07/17 02:04:42;;;;;;;3.45;2.30;;;;;15.00;97207.00;;;;8315018;28;20310;-69
2022/07/17 02:08:45;;;;;;;3.80;2.55;;;;;14.90;97218.00;;;;8316335;28;20316;-69
2022/07/17 02:12:50;;;;;;;2.30;2.10;;;;;14.90;97218.00;;;;8309545;28;20256;-70
2022/07/17 02:16:54;;;;;;;4.63;2.63;;;;;14.90;97216.00;;;;8316291;28;20307;-69
2022/07/17 02:20:58;;;;;;;2.35;2.20;;;;;14.80;97212.00;;;;8309421;28;20687;-69
2022/07/17 02:25:01;;;;;;;3.25;2.20;;;;;14.80;97214.00;;;;8309169;28;20634;-69
2022/07/17 02:29:06;;;;;;;5.40;2.22;;;;;14.80;97211.00;;;;8312978;28;20783;-68
2022/07/17 02:33:09;;;;;;;2.50;2.30;;;;;14.80;97208.00;;;;8329346;28;20804;-68
2022/07/17 02:37:12;;;;;;;5.10;2.10;;;;;14.70;97211.00;;;;8312971;28;20891;-68
2022/07/17 02:41:17;;;;;;;5.55;2.38;;;;;14.70;97215.00;;;;8321207;28;20253;-68
2022/07/17 02:45:24;;;;;;;2.10;2.00;;;;;14.60;97206.00;;;;8316072;28;20272;-68
2022/07/17 02:49:27;;;;;;;3.22;2.70;;;;;14.50;97202.00;;;;8316477;28;20229;-68
2022/07/17 02:53:30;;;;;;;3.22;3.03;;;;;14.20;97205.00;;;;8312332;28;20288;-68
2022/07/17 02:57:34;;;;;;;6.80;3.58;;;;;13.70;97205.00;;;;8314834;28;20230;-69
2022/07/17 03:01:40;;;;;;;3.72;3.30;;;;;13.50;97205.00;;;;8319458;23;20583;-68
2022/07/17 03:05:44;;;;;;;3.25;2.95;;;;;13.30;97206.00;;;;8272988;28;20226;-69
2022/07/17 03:09:47;;;;;;;4.70;3.33;;;;;13.20;97203.00;;;;8285849;28;20257;-69
2022/07/17 03:13:50;;;;;;;5.50;2.28;;;;;13.20;97204.00;;;;8275542;28;20238;-68
2022/07/17 03:17:55;;;;;;;6.55;2.33;;;;;13.30;97213.00;;;;8262886;28;20236;-68
2022/07/17 03:21:58;;;;;;;3.45;2.28;;;;;13.50;97201.00;;;;8267072;28;20240;-68
2022/07/17 03:26:01;;;;;;;2.57;2.37;;;;;13.50;97204.00;;;;8272600;28;20230;-67
2022/07/17 03:30:15;;;;;;;4.63;2.60;;;;;13.50;97209.00;;;;8272041;28;20261;-67
2022/07/17 03:34:26;;;;;;;6.78;2.45;;;;;13.50;97203.00;;;;8289622;28;20225;-69
2022/07/17 03:38:30;;;;;;;2.35;2.10;;;;;13.50;97208.00;;;;8272870;28;20682;-69
2022/07/17 03:42:34;;;;;;;8.77;2.70;;;;;13.60;97192.00;;;;8279673;28;20253;-70
2022/07/17 03:46:38;;;;;;;4.22;2.20;;;;;13.60;97201.00;;;;8270931;28;20232;-68
2022/07/17 03:50:43;;;;;;;3.60;2.30;;;;;13.70;97203.00;;;;8266488;28;20233;-70
2022/07/17 03:54:47;;;;;;;2.60;2.40;;;;;13.80;97195.00;;;;8287266;28;20217;-69
2022/07/17 03:58:51;;;;;;;5.00;3.00;;;;;13.70;97204.00;;;;8274850;28;20241;-69
2022/07/17 04:02:54;;;;;;;4.07;3.30;;;;;13.40;97201.00;;;;8286664;28;20227;-69
2022/07/17 04:06:59;;;;;;;5.43;3.40;;;;;13.10;97205.00;;;;8281392;28;20226;-69
2022/07/17 04:11:02;;;;;;;5.18;3.00;;;;;13.10;97203.00;;;;8281467;28;20302;-68
2022/07/17 04:15:12;;;;;;;4.37;3.30;;;;;13.20;97203.00;;;;8272990;28;20867;-70
2022/07/17 04:19:16;;;;;;;4.00;3.10;;;;;13.30;97199.00;;;;8286976;28;20344;-68
2022/07/17 04:23:21;;;;;;;6.93;2.95;;;;;13.40;97206.00;;;;8289847;28;20229;-69
2022/07/17 04:27:24;;;;;;;4.07;2.70;;;;;13.50;97215.00;;;;8286000;28;20226;-69
2022/07/17 04:31:27;;;;;;;4.37;2.63;;;;;13.80;97218.00;;;;8276797;28;20255;-69
2022/07/17 04:35:32;;;;;;;3.97;2.80;;;;;14.20;97213.00;;;;8283441;28;20469;-69
2022/07/17 04:39:37;;;;;;;4.72;3.05;;;;;14.50;97216.00;;;;8283226;28;20742;-69
2022/07/17 04:43:40;;;;;;;4.80;2.58;;;;;14.70;97216.00;;;;8285581;28;20321;-69
2022/07/17 04:47:43;;;;;;;4.05;2.35;;;;;15.00;97213.00;;;;8288142;28;20259;-69
2022/07/17 04:51:52;;;;;;;4.18;2.67;;;;;15.40;97222.00;;;;8276182;28;20309;-69
2022/07/17 04:56:03;;;;;;;4.95;2.00;;;;;15.90;97222.00;;;;8281488;28;20698;-69
2022/07/17 05:00:14;;;;;;;6.35;1.90;;;;;16.40;97220.00;;;;8255929;28;20598;-69
2022/07/17 05:04:29;;;;;;;6.20;2.05;;;;;16.90;97220.00;;;;8259715;28;20928;-69
2022/07/17 05:08:35;;;;;;;5.57;1.90;;;;;17.30;97217.00;;;;8272238;28;20294;-70
2022/07/17 05:12:39;;;;;;;3.80;1.80;;;;;17.60;97215.00;;;;8276806;28;20232;-70
2022/07/17 05:16:43;;;;;;;3.03;1.55;;;;;17.90;97222.00;;;;8277668;28;20642;-70
2022/07/17 05:20:46;;;;;;;5.28;1.85;;;;;18.20;97218.00;;;;8278813;28;20233;-68
2022/07/17 05:24:49;;;;;;;6.65;1.70;;;;;18.50;97224.00;;;;8288539;28;20227;-69
2022/07/17 05:28:54;;;;;;;1.77;1.63;;;;;18.70;97225.00;;;;8264035;28;20809;-68
2022/07/17 05:32:57;;;;;;;6.22;1.77;;;;;18.80;97214.00;;;;8269521;28;20230;-69
2022/07/17 05:37:01;;;;;;;9.20;1.80;;;;;18.80;97226.00;;;;8274939;28;20697;-70
2022/07/17 05:41:05;;;;;;;6.78;1.75;;;;;18.90;97227.00;;;;8289037;28;20295;-69
2022/07/17 05:45:10;;;;;;;3.92;1.65;;;;;18.90;97236.00;;;;8277257;28;20222;-68
2022/07/17 05:49:13;;;;;;;3.80;1.55;;;;;18.80;97232.00;;;;8266130;28;20316;-69
2022/07/17 05:53:16;;;;;;;3.92;1.98;;;;;18.70;97236.00;;;;8280380;28;20691;-68
2022/07/17 05:57:20;;;;;;;3.40;1.60;;;;;18.80;97243.00;;;;8278300;28;20218;-69
2022/07/17 06:01:24;;;;;;;2.35;1.92;;;;;18.90;97246.00;;;;8274435;28;20639;-69
2022/07/17 06:05:28;;;;;;;4.68;1.80;;;;;19.20;97266.00;;;;8274718;28;20837;-70
2022/07/17 06:09:32;;;;;;;2.78;1.60;;;;;19.50;97260.00;;;;8275370;28;21031;-68
2022/07/17 06:13:35;;;;;;;5.50;2.00;;;;;20.10;97264.00;;;;8285213;28;20276;-68
2022/07/17 06:17:40;;;;;;;6.10;1.80;;;;;20.60;97261.00;;;;8280039;28;20237;-69
2022/07/17 06:21:46;;;;;;;2.72;1.70;;;;;20.90;97262.00;;;;8278127;28;20726;-69
2022/07/17 06:25:49;;;;;;;4.45;1.83;;;;;21.10;97262.00;;;;8291378;28;20221;-68
2022/07/17 06:29:52;;;;;;;4.40;1.70;;;;;21.40;97258.00;;;;8277112;28;20226;-68
2022/07/17 06:34:00;;;;;;;1.83;1.67;;;;;21.70;97264.00;;;;8276409;28;20665;-69
2022/07/17 06:38:04;;;;;;;3.33;1.70;;;;;22.10;97269.00;;;;8275489;28;20229;-68
2022/07/17 06:42:07;;;;;;;2.50;1.77;;;;;22.60;97271.00;;;;8278495;28;20337;-69
2022/07/17 06:46:10;;;;;;;1.70;1.60;;;;;23.20;97277.00;;;;8280106;28;20228;-69
2022/07/17 06:50:15;;;;;;;2.45;1.75;;;;;23.40;97269.00;;;;8275495;28;20721;-68
2022/07/17 06:54:18;;;;;;;2.97;1.60;;;;;24.00;97281.00;;;;8274828;28;20228;-69
2022/07/17 06:58:22;;;;;;;1.85;1.58;;;;;24.30;97277.00;;;;8281655;28;20829;-69
2022/07/17 07:02:25;;;;;;;5.15;2.08;;;;;24.70;97273.00;;;;8278672;28;20313;-69
2022/07/17 07:06:30;;;;;;;4.40;1.80;;;;;25.10;97279.00;;;;8273414;28;20301;-69
2022/07/17 07:10:33;;;;;;;2.78;1.80;;;;;25.30;97285.00;;;;8278125;28;20326;-68
2022/07/17 07:14:36;;;;;;;3.17;1.90;;;;;25.60;97293.00;;;;8271339;28;20238;-68
2022/07/17 07:18:39;;;;;;;7.00;1.80;;;;;26.10;97300.00;;;;8273242;28;20230;-69
2022/07/17 07:22:44;;;;;;;2.70;1.83;;;;;26.50;97302.00;;;;8277165;28;20249;-67
2022/07/17 07:26:47;;;;;;;2.00;1.90;;;;;27.10;97309.00;;;;8277324;28;20650;-69
2022/07/17 07:30:58;;;;;;;4.47;1.85;;;;;27.20;97319.00;;;;8277828;28;21022;-68
2022/07/17 07:35:02;;;;;;;1.90;1.80;;;;;27.20;97317.00;;;;8264253;28;20981;-67
2022/07/17 07:39:06;;;;;;;1.95;1.73;;;;;27.10;97319.00;;;;8278637;28;20950;-68
2022/07/17 07:43:09;;;;;;;3.17;1.70;;;;;27.40;97315.00;;;;8270931;28;20218;-68
2022/07/17 07:47:13;;;;;;;5.57;1.95;;;;;27.80;97309.00;;;;8269407;28;20225;-69
2022/07/17 07:51:16;;;;;;;1.95;1.70;;;;;28.20;97305.00;;;;8272766;28;20251;-69
2022/07/17 07:55:42;;;;;;;1.60;1.50;;;;;28.80;97307.00;;;;8276258;28;20229;-67
2022/07/17 07:59:46;;;;;;;2.10;1.90;;;;;29.50;97299.00;;;;8276640;28;20762;-67
2022/07/17 08:03:49;;;;;;;2.92;1.75;;;;;30.30;97304.00;;;;8275594;28;20321;-68
2022/07/17 08:07:53;;;;;;;4.53;2.10;;;;;30.80;97309.00;;;;8274922;28;20744;-70
2022/07/17 08:11:58;;;;;;;2.92;1.67;;;;;31.30;97304.00;;;;8276795;28;20978;-67
2022/07/17 08:16:08;;;;;;;1.90;1.80;;;;;31.60;97302.00;;;;8272915;28;20240;-68
2022/07/17 08:20:13;;;;;;;4.15;1.95;;;;;31.90;97302.00;;;;8273640;28;20237;-70
2022/07/17 08:24:17;;;;;;;1.85;1.70;;;;;32.30;97307.00;;;;8275053;28;20230;-67
2022/07/17 08:28:22;;;;;;;1.90;1.80;;;;;32.20;97303.00;;;;8272347;28;20253;-69
2022/07/17 08:32:25;;;;;;;2.17;1.50;;;;;32.00;97305.00;;;;8274262;28;20218;-70
2022/07/17 08:36:28;;;;;;;2.60;1.70;;;;;32.40;97301.00;;;;8274512;28;20710;-70
2022/07/17 08:40:35;;;;;;;3.75;1.80;;;;;32.60;97303.00;;;;8282707;28;20284;-70
2022/07/17 08:44:40;;;;;;;2.30;1.73;;;;;32.60;97303.00;;;;8275865;28;20679;-69
2022/07/17 08:48:46;;;;;;;2.40;1.58;;;;;31.80;97311.00;;;;8281350;28;20218;-71
2022/07/17 08:52:52;;;;;;;1.80;1.70;;;;;31.50;97318.00;;;;8272400;28;20222;-69
2022/07/17 08:56:55;;;;;;;1.70;1.60;;;;;31.10;97311.00;;;;8280038;28;20241;-68
2022/07/17 09:01:00;;;;;;;2.00;1.60;;;;;31.00;97312.00;;;;8273628;28;20236;-68
2022/07/17 09:05:04;;;;;;;3.20;1.75;;;;;31.10;97309.00;;;;8277718;28;20294;-68
2022/07/17 09:09:10;;;;;;;2.63;1.25;;;;;30.70;97319.00;;;;8280949;28;20312;-68
2022/07/17 09:13:20;;;;;;;3.55;1.60;;;;;31.00;97312.00;;;;8272537;28;21925;-71
2022/07/17 09:17:27;;;;;;;2.13;1.60;;;;;31.20;97321.00;;;;8277173;28;20658;-71
2022/07/17 09:21:31;;;;;;;4.03;1.40;;;;;31.30;97311.00;;;;8269271;28;20238;-71
2022/07/17 09:25:39;;;;;;;3.40;1.50;;;;;31.70;97314.00;;;;8274392;28;20256;-70
2022/07/17 09:29:57;;;;;;;2.13;1.60;;;;;32.10;97320.00;;;;8272269;28;20312;-71
2022/07/17 09:34:02;;;;;;;2.22;1.60;;;;;32.00;97313.00;;;;8279290;28;20241;-71
2022/07/17 09:38:06;;;;;;;2.88;1.42;;;;;31.40;97313.00;;;;8270927;28;20256;-69
2022/07/17 09:42:10;;;;;;;10.82;1.60;;;;;31.40;97306.00;;;;8276565;28;20750;-71
2022/07/17 09:46:16;;;;;;;1.77;1.52;;;;;31.30;97310.00;;;;8279976;28;20317;-71
2022/07/17 09:50:21;;;;;;;1.50;1.42;;;;;32.10;97305.00;;;;8278955;28;20654;-71
2022/07/17 09:54:24;;;;;;;2.95;1.60;;;;;33.20;97305.00;;;;8280527;28;20252;-70
2022/07/17 09:58:28;;;;;;;1.42;1.35;;;;;34.10;97297.00;;;;8274607;28;20245;-71
2022/07/17 10:02:32;;;;;;;1.50;1.40;;;;;34.50;97291.00;;;;8260122;28;20232;-71
2022/07/17 10:06:38;;;;;;;1.67;1.50;;;;;34.10;97297.00;;;;8276194;28;20714;-71
2022/07/17 10:10:43;;;;;;;1.60;1.50;;;;;33.70;97292.00;;;;8276811;28;20225;-72
2022/07/17 10:14:49;;;;;;;1.50;1.40;;;;;33.40;97297.00;;;;8260273;28;20332;-71
2022/07/17 10:18:54;;;;;;;1.75;1.42;;;;;33.70;97291.00;;;;8267818;28;20796;-71
2022/07/17 10:23:00;;;;;;;1.70;1.40;;;;;34.40;97291.00;;;;8278457;28;20237;-72
2022/07/17 10:27:03;;;;;;;1.33;1.20;;;;;35.00;97290.00;;;;8269222;28;20233;-74
2022/07/17 10:31:06;;;;;;;3.20;1.35;;;;;34.80;97288.00;;;;8277115;28;20648;-76
2022/07/17 10:35:11;;;;;;;1.45;1.42;;;;;34.60;97291.00;;;;8271950;28;20260;-75
2022/07/17 10:39:20;;;;;;;2.83;1.42;;;;;33.90;97287.00;;;;8275088;28;20241;-78
2022/07/17 10:43:24;;;;;;;1.40;1.30;;;;;34.00;97291.00;;;;8279703;28;20226;-78
2022/07/17 10:47:28;;;;;;;3.78;3.42;;;;;34.50;97293.00;;;;8271080;28;20232;-76
2022/07/17 10:51:32;;;;;;;2.30;1.95;;;;;34.90;97282.00;;;;8276041;28;20244;-76
2022/07/17 10:55:39;;;;;;;2.17;1.70;;;;;35.70;97278.00;;;;8276671;28;20338;-77
2022/07/17 10:59:43;;;;;;;2.10;1.45;;;;;36.50;97277.00;;;;8273796;28;20234;-77
2022/07/17 11:03:48;;;;;;;3.03;2.60;;;;;36.90;97267.00;;;;8275460;28;20317;-73
2022/07/17 11:07:53;;;;;;;1.60;1.50;;;;;37.30;97275.00;;;;8277549;28;20340;-75
2022/07/17 11:11:57;;;;;;;7.68;6.75;;;;;37.80;97268.00;;;;8273755;28;20226;-75
2022/07/17 11:16:01;;;;;;;1.35;1.35;;;;;37.60;97279.00;;;;8276256;28;20925;-76
2022/07/17 11:20:05;;;;;;;2.85;1.35;;;;;36.10;97273.00;;;;8274250;28;20230;-76
2022/07/17 11:24:08;;;;;;;1.27;1.27;;;;;35.20;97279.00;;;;8273091;28;20222;-76
2022/07/17 11:28:13;;;;;;;1.50;1.40;;;;;35.00;97272.00;;;;8274789;28;20238;-77
2022/07/17 11:32:16;;;;;;;2.20;1.60;;;;;34.90;97274.00;;;;8272075;28;20245;-74
2022/07/17 11:36:28;;;;;;;5.82;5.25;;;;;35.50;97269.00;;;;8272995;28;20328;-75
2022/07/17 11:40:32;;;;;;;3.03;1.75;;;;;36.50;97263.00;;;;8270807;28;20218;-77
2022/07/17 11:44:38;;;;;;;2.67;1.20;;;;;37.10;97260.00;;;;8275845;28;20237;-75
2022/07/17 11:48:42;;;;;;;1.45;1.15;;;;;37.60;97263.00;;;;8278325;28;20279;-74
2022/07/17 11:52:48;;;;;;;1.95;1.70;;;;;37.70;97267.00;;;;8269907;28;20230;-76
2022/07/17 11:56:57;;;;;;;2.95;1.42;;;;;37.90;97267.00;;;;8270313;28;20293;-75
2022/07/17 12:01:04;;;;;;;2.38;1.50;;;;;38.00;97258.00;;;;8270428;28;20234;-77
2022/07/17 12:05:08;;;;;;;3.33;1.30;;;;;38.00;97247.00;;;;8272646;28;20238;-75
2022/07/17 12:09:12;;;;;;;1.48;1.40;;;;;37.90;97253.00;;;;8268209;28;20232;-79
2022/07/17 12:13:15;;;;;;;1.85;1.50;;;;;37.60;97245.00;;;;8276037;28;20241;-75
2022/07/17 12:17:20;;;;;;;1.50;1.40;;;;;38.20;97249.00;;;;8278077;28;20717;-77
2022/07/17 12:21:25;;;;;;;1.95;1.40;;;;;38.40;97252.00;;;;8277186;28;22232;-71
2022/07/17 12:25:29;;;;;;;2.22;1.23;;;;;37.60;97249.00;;;;8280540;28;20226;-72
2022/07/17 12:29:33;;;;;;;1.48;1.30;;;;;37.20;97244.00;;;;8278003;28;20313;-74
2022/07/17 12:33:37;;;;;;;4.88;1.30;;;;;36.60;97238.00;;;;8273311;28;20687;-75
2022/07/17 12:37:41;;;;;;;1.83;1.33;;;;;35.20;97245.00;;;;8275182;28;20218;-75
2022/07/17 12:41:44;;;;;;;1.17;1.17;;;;;34.20;97246.00;;;;8274954;28;20240;-75
2022/07/17 12:45:48;;;;;;;1.30;1.20;;;;;33.60;97238.00;;;;8276082;28;20252;-74
2022/07/17 12:49:53;;;;;;;4.40;1.30;;;;;33.50;97231.00;;;;8275325;28;20717;-74
2022/07/17 12:53:56;;;;;;;5.32;1.67;;;;;33.80;97231.00;;;;8274379;28;20244;-75
2022/07/17 12:58:00;;;;;;;2.65;1.40;;;;;33.80;97228.00;;;;8277829;28;20589;-74
2022/07/17 13:02:03;;;;;;;1.20;1.15;;;;;33.50;97225.00;;;;8274085;28;20598;-75
2022/07/17 13:06:09;;;;;;;1.33;1.02;;;;;33.10;97220.00;;;;8263500;28;20229;-72
2022/07/17 13:10:12;;;;;;;1.85;1.48;;;;;32.80;97222.00;;;;8270379;28;20668;-72
2022/07/17 13:14:16;;;;;;;1.20;1.10;;;;;32.80;97213.00;;;;8266376;28;20666;-72
2022/07/17 13:18:19;;;;;;;2.60;1.48;;;;;32.30;97219.00;;;;8272565;28;20705;-72
2022/07/17 13:22:24;;;;;;;1.13;1.10;;;;;32.10;97210.00;;;;8269351;28;20237;-70
2022/07/17 13:26:28;;;;;;;1.30;1.20;;;;;32.80;97205.00;;;;8264699;28;20237;-72
2022/07/17 13:30:32;;;;;;;2.45;1.60;;;;;34.30;97210.00;;;;8270616;28;20233;-71
2022/07/17 13:34:35;;;;;;;2.08;1.08;;;;;35.10;97207.00;;;;8276007;28;20689;-72
2022/07/17 13:38:40;;;;;;;1.33;1.17;;;;;35.60;97202.00;;;;8279514;28;20241;-72
2022/07/17 13:42:43;;;;;;;2.03;1.33;;;;;36.20;97204.00;;;;8276566;28;20283;-71
2022/07/17 13:46:46;;;;;;;1.20;1.20;;;;;37.00;97204.00;;;;8274969;28;20782;-72
2022/07/17 13:50:50;;;;;;;1.48;1.40;;;;;37.30;97201.00;;;;8274396;28;20239;-71
2022/07/17 13:54:54;;;;;;;1.42;1.33;;;;;37.70;97190.00;;;;8267979;28;20273;-72
2022/07/17 13:59:17;;;;;;;1.60;1.40;;;;;37.50;97201.00;;;;8271829;28;20283;-72
2022/07/17 14:03:22;;;;;;;1.85;1.50;;;;;37.00;97197.00;;;;8268367;28;20237;-72
2022/07/17 14:07:25;;;;;;;1.52;1.40;;;;;36.70;97201.00;;;;8268791;28;20583;-71
2022/07/17 14:11:30;;;;;;;3.03;1.33;;;;;36.60;97198.00;;;;8273628;28;20248;-71
2022/07/17 14:15:33;;;;;;;1.48;1.38;;;;;36.20;97192.00;;;;8272933;28;20229;-73
2022/07/17 14:19:36;;;;;;;1.40;1.27;;;;;36.70;97188.00;;;;8267397;28;20245;-71
2022/07/17 14:23:44;;;;;;;1.33;1.23;;;;;37.20;97183.00;;;;8265993;28;20245;-71
2022/07/17 14:27:49;;;;;;;1.48;1.33;;;;;37.70;97176.00;;;;8268581;28;20236;-71
2022/07/17 14:31:53;;;;;;;3.40;1.38;;;;;37.60;97172.00;;;;8277447;28;20232;-71
2022/07/17 14:35:57;;;;;;;3.22;1.33;;;;;37.40;97174.00;;;;8275316;28;20265;-71
2022/07/17 14:40:00;;;;;;;6.47;1.58;;;;;37.00;97173.00;;;;8275264;28;20225;-72
2022/07/17 14:44:05;;;;;;;2.22;1.60;;;;;36.90;97168.00;;;;8273432;28;20226;-72
2022/07/17 14:48:08;;;;;;;3.20;1.52;;;;;36.80;97168.00;;;;8278035;28;20669;-71
2022/07/17 14:52:12;;;;;;;2.67;1.33;;;;;37.30;97170.00;;;;8272283;28;20233;-71
2022/07/17 14:56:16;;;;;;;3.45;1.30;;;;;37.60;97170.00;;;;8271144;28;20248;-70
2022/07/17 15:00:21;;;;;;;3.03;1.52;;;;;38.00;97168.00;;;;8273062;28;20317;-72
2022/07/17 15:04:24;;;;;;;3.80;1.60;;;;;38.20;97170.00;;;;8272022;28;20309;-70
2022/07/17 15:08:28;;;;;;;1.92;1.13;;;;;38.30;97167.00;;;;8270223;28;20268;-70
2022/07/17 15:12:31;;;;;;;2.33;1.42;;;;;37.70;97170.00;;;;8270241;28;20322;-70
2022/07/17 15:16:35;;;;;;;6.30;1.42;;;;;37.30;97161.00;;;;8265596;28;20232;-70
2022/07/17 15:20:39;;;;;;;1.52;1.15;;;;;37.50;97157.00;;;;8272754;28;20256;-70
2022/07/17 15:24:45;;;;;;;2.05;1.55;;;;;37.80;97161.00;;;;8270744;28;20234;-71
2022/07/17 15:28:49;;;;;;;3.72;1.33;;;;;38.10;97160.00;;;;8277299;28;20240;-72
2022/07/17 15:32:53;;;;;;;2.20;1.17;;;;;37.90;97152.00;;;;8274086;28;20249;-71
2022/07/17 15:36:57;;;;;;;2.33;1.33;;;;;37.50;97158.00;;;;8276992;28;20799;-72
2022/07/17 15:41:00;;;;;;;2.97;1.30;;;;;37.60;97159.00;;;;8280493;28;20281;-70
2022/07/17 15:45:04;;;;;;;2.65;1.73;;;;;37.80;97155.00;;;;8272341;28;20921;-73
2022/07/17 15:49:09;;;;;;;1.85;1.25;;;;;38.00;97141.00;;;;8280276;28;20221;-73
2022/07/17 15:53:12;;;;;;;2.22;2.03;;;;;38.10;97140.00;;;;8281686;28;20222;-72
2022/07/17 15:57:16;;;;;;;1.77;1.63;;;;;38.40;97140.00;;;;8274305;28;20261;-70
2022/07/17 16:01:19;;;;;;;2.67;1.50;;;;;38.60;97146.00;;;;8271687;28;20238;-72
2022/07/17 16:05:24;;;;;;;3.17;1.55;;;;;38.50;97130.00;;;;8278827;28;20574;-72
2022/07/17 16:09:27;;;;;;;6.07;1.50;;;;;38.40;97119.00;;;;8285065;28;20585;-71
2022/07/17 16:13:30;;;;;;;1.73;1.40;;;;;37.20;97127.00;;;;8278527;28;20233;-75
2022/07/17 16:17:34;;;;;;;3.28;1.45;;;;;36.20;97128.00;;;;8286504;28;20218;-72
2022/07/17 16:21:39;;;;;;;1.80;1.70;;;;;36.10;97125.00;;;;8280946;28;20234;-71
2022/07/17 16:25:43;;;;;;;4.93;1.50;;;;;35.80;97131.00;;;;8282370;28;20226;-73
2022/07/17 16:29:47;;;;;;;4.07;1.60;;;;;35.80;97122.00;;;;8280217;28;20219;-73
2022/07/17 16:33:50;;;;;;;4.32;1.55;;;;;35.70;97120.00;;;;8279203;28;20226;-72
2022/07/17 16:37:55;;;;;;;2.85;1.40;;;;;35.60;97116.00;;;;8283535;28;20280;-72
2022/07/17 16:41:59;;;;;;;1.42;1.33;;;;;35.90;97120.00;;;;8283426;28;20280;-71
2022/07/17 16:46:02;;;;;;;6.45;1.40;;;;;36.60;97112.00;;;;8282329;28;20682;-73
2022/07/17 16:50:06;;;;;;;2.72;1.40;;;;;37.40;97110.00;;;;8280876;28;20214;-72
2022/07/17 16:54:11;;;;;;;2.38;1.23;;;;;38.10;97105.00;;;;8281067;28;20234;-74
2022/07/17 16:58:15;;;;;;;2.08;1.27;;;;;38.30;97098.00;;;;8282047;28;20219;-73
2022/07/17 17:02:18;;;;;;;2.35;1.40;;;;;38.70;97101.00;;;;8286457;28;20702;-75
2022/07/17 17:06:22;;;;;;;2.20;1.25;;;;;38.90;97103.00;;;;8274522;28;20249;-73
2022/07/17 17:10:26;;;;;;;3.60;1.40;;;;;38.90;97100.00;;;;8276724;28;20240;-72
2022/07/17 17:14:30;;;;;;;3.40;1.38;;;;;38.50;97106.00;;;;8274026;28;20725;-72
2022/07/17 17:18:33;;;;;;;1.20;1.20;;;;;37.60;97104.00;;;;8275696;28;20232;-72
2022/07/17 17:22:37;;;;;;;3.70;1.38;;;;;36.90;97102.00;;;;8283196;28;20986;-71
2022/07/17 17:26:43;;;;;;;1.40;1.30;;;;;36.40;97095.00;;;;8279352;28;20252;-72
2022/07/17 17:30:49;;;;;;;1.20;1.20;;;;;36.00;97092.00;;;;8268473;28;20458;-73
2022/07/17 17:34:53;;;;;;;2.13;1.20;;;;;35.60;97095.00;;;;8276741;28;20318;-71
2022/07/17 17:38:59;;;;;;;3.78;1.30;;;;;35.30;97094.00;;;;8275857;28;20875;-72
2022/07/17 17:43:05;;;;;;;1.80;1.60;;;;;34.90;97105.00;;;;8276347;28;20237;-70
2022/07/17 17:47:08;;;;;;;1.33;1.20;;;;;34.70;97101.00;;;;8276511;28;20222;-70
2022/07/17 17:51:12;;;;;;;1.40;1.30;;;;;34.40;97093.00;;;;8273642;28;20252;-70
2022/07/17 17:55:15;;;;;;;1.50;1.40;;;;;34.20;97098.00;;;;8279962;28;20961;-70
2022/07/17 17:59:21;;;;;;;2.53;1.25;;;;;34.00;97099.00;;;;8281377;28;20248;-70
2022/07/17 18:03:24;;;;;;;1.63;1.30;;;;;33.40;97099.00;;;;8271020;28;20234;-70
2022/07/17 18:07:30;;;;;;;4.75;1.27;;;;;32.40;97102.00;;;;8271415;28;20292;-71
2022/07/17 18:11:33;;;;;;;2.05;1.65;;;;;31.50;97103.00;;;;8275861;28;20804;-71
2022/07/17 18:15:44;;;;;;;4.57;1.48;;;;;30.60;97107.00;;;;8271290;28;20574;-71
2022/07/17 18:19:48;;;;;;;2.33;1.50;;;;;29.80;97102.00;;;;8284461;28;20316;-72
2022/07/17 18:23:51;;;;;;;3.70;1.00;;;;;29.20;97112.00;;;;8282610;28;20879;-71
2022/07/17 18:27:55;;;;;;;1.60;1.50;;;;;28.60;97111.00;;;;8283407;28;20245;-74
2022/07/17 18:31:59;;;;;;;1.48;1.38;;;;;28.00;97097.00;;;;8281144;28;20333;-74
2022/07/17 18:36:03;;;;;;;1.23;1.20;;;;;27.40;97107.00;;;;8277383;28;20621;-73
2022/07/17 18:40:09;;;;;;;1.27;1.23;;;;;26.90;97102.00;;;;8277711;28;20253;-70
2022/07/17 18:44:12;;;;;;;2.33;1.30;;;;;26.40;97110.00;;;;8279918;28;20226;-71
2022/07/17 18:48:17;;;;;;;2.60;1.60;;;;;25.90;97110.00;;;;8271842;28;20651;-75
2022/07/17 18:52:20;;;;;;;3.90;1.85;;;;;25.50;97110.00;;;;8271154;28;20225;-74
2022/07/17 18:56:23;;;;;;;3.08;1.52;;;;;25.00;97110.00;;;;8280654;28;20316;-74
2022/07/17 19:00:27;;;;;;;3.00;1.33;;;;;24.60;97114.00;;;;8272821;28;20229;-72
2022/07/17 19:04:31;;;;;;;1.95;1.30;;;;;24.20;97106.00;;;;8280103;28;20232;-73
2022/07/17 19:08:35;;;;;;;1.58;1.48;;;;;23.80;97116.00;;;;8276551;28;20232;-73
2022/07/17 19:12:40;;;;;;;1.67;1.40;;;;;23.40;97114.00;;;;8274648;28;20232;-74
2022/07/17 19:16:43;;;;;;;1.70;1.38;;;;;23.00;97119.00;;;;8272878;28;20218;-74
2022/07/17 19:20:48;;;;;;;1.63;1.52;;;;;22.70;97125.00;;;;8265394;28;20233;-74
2022/07/17 19:24:52;;;;;;;2.72;1.60;;;;;22.30;97133.00;;;;8270620;28;20332;-76
2022/07/17 19:28:55;;;;;;;4.13;1.40;;;;;22.10;97139.00;;;;8278458;28;20318;-77
2022/07/17 19:32:59;;;;;;;1.73;1.40;;;;;21.90;97135.00;;;;8279282;28;20254;-76
2022/07/17 19:37:04;;;;;;;3.42;1.23;;;;;21.60;97144.00;;;;8275152;28;20312;-76
2022/07/17 19:41:07;;;;;;;2.53;1.50;;;;;21.50;97144.00;;;;8273965;28;20317;-75
2022/07/17 19:45:11;;;;;;;3.50;1.40;;;;;21.20;97150.00;;;;8276741;28;20230;-73
2022/07/17 19:49:14;;;;;;;1.63;1.52;;;;;21.00;97159.00;;;;8280379;28;20789;-73
2022/07/17 19:53:19;;;;;;;4.43;1.58;;;;;20.90;97145.00;;;;8270873;28;20232;-75
2022/07/17 19:57:22;;;;;;;1.45;1.35;;;;;20.80;97155.00;;;;8274441;28;20222;-75
2022/07/17 20:01:27;;;;;;;1.48;1.38;;;;;20.80;97165.00;;;;8270276;28;20614;-77
2022/07/17 20:05:30;;;;;;;5.03;1.67;;;;;20.70;97156.00;;;;8267662;28;20237;-79
2022/07/17 20:09:35;;;;;;;3.35;1.55;;;;;20.60;97170.00;;;;8275687;28;20226;-77
2022/07/17 20:13:39;;;;;;;1.40;1.40;;;;;20.50;97172.00;;;;8272851;28;20237;-77
2022/07/17 20:17:42;;;;;;;3.13;1.35;;;;;20.40;97170.00;;;;8273643;28;20238;-76
2022/07/17 20:21:45;;;;;;;13.27;2.25;;;;;20.30;97167.00;;;;8276848;28;20901;-74
2022/07/17 20:25:51;;;;;;;1.40;1.40;;;;;20.10;97171.00;;;;8274072;28;20233;-76